createdAt,value
2019-02-16T00:01:37.002Z,2.10
2019-02-16T00:04:06.283Z,2.10
2019-02-16T00:06:35.249Z,2.10
2019-02-16T00:09:04.714Z,2.30
2019-02-16T00:11:33.880Z,2.50
2019-02-16T00:14:02.725Z,2.50
2019-02-16T00:16:31.867Z,2.40
2019-02-16T00:19:01.340Z,2.40
2019-02-16T00:21:30.774Z,2.20
2019-02-16T00:23:59.970Z,2.30
2019-02-16T00:26:28.805Z,2.40
2019-02-16T00:28:57.650Z,2.40
2019-02-16T00:31:26.486Z,2.30
2019-02-16T00:33:55.327Z,2.30
2019-02-16T00:36:24.163Z,2.40
2019-02-16T00:38:54.209Z,2.40
2019-02-16T00:41:23.230Z,2.50
2019-02-16T00:43:52.078Z,2.40
2019-02-16T00:46:21.325Z,2.40
2019-02-16T00:48:50.485Z,2.30
2019-02-16T00:51:19.322Z,2.10
2019-02-16T00:53:48.457Z,1.90
2019-02-16T00:56:17.357Z,1.80
2019-02-16T00:58:46.282Z,1.70
2019-02-16T01:01:15.121Z,1.60
2019-02-16T01:03:43.966Z,1.60
2019-02-16T01:06:12.802Z,1.50
2019-02-16T01:08:41.959Z,1.50
2019-02-16T01:11:10.801Z,1.40
2019-02-16T01:13:39.944Z,1.40
2019-02-16T01:16:08.837Z,1.60
2019-02-16T01:18:37.686Z,1.50
2019-02-16T01:21:06.940Z,1.40
2019-02-16T01:23:35.814Z,1.40
2019-02-16T01:26:04.718Z,1.30
2019-02-16T01:28:33.653Z,1.30
2019-02-16T01:31:02.497Z,1.20
2019-02-16T01:33:31.410Z,1.20
2019-02-16T01:36:00.245Z,1.10
2019-02-16T01:38:29.470Z,1.10
2019-02-16T01:40:58.337Z,1.30
2019-02-16T01:43:27.339Z,1.20
2019-02-16T01:45:56.466Z,1.10
2019-02-16T01:48:25.390Z,1.00
2019-02-16T01:50:54.246Z,1.10
2019-02-16T01:53:23.098Z,1.10
2019-02-16T01:55:52.222Z,1.20
2019-02-16T01:58:21.419Z,1.40
2019-02-16T02:00:50.332Z,1.50
2019-02-16T02:03:19.169Z,1.50
2019-02-16T02:05:48.314Z,1.60
2019-02-16T02:08:17.175Z,1.60
2019-02-16T02:10:46.283Z,1.60
2019-02-16T02:13:15.203Z,1.70
2019-02-16T02:15:44.033Z,1.70
2019-02-16T02:18:12.883Z,1.80
2019-02-16T02:20:41.709Z,1.80
2019-02-16T02:23:10.842Z,1.70
2019-02-16T02:25:39.682Z,1.50
2019-02-16T02:28:08.822Z,1.40
2019-02-16T02:30:37.917Z,1.30
2019-02-16T02:33:07.124Z,1.50
2019-02-16T02:35:36.258Z,1.40
2019-02-16T02:38:05.179Z,1.50
2019-02-16T02:40:34.406Z,1.40
2019-02-16T02:43:03.606Z,1.30
2019-02-16T02:45:32.702Z,1.40
2019-02-16T02:48:01.559Z,1.10
2019-02-16T02:50:30.895Z,0.90
2019-02-16T02:52:59.991Z,0.90
2019-02-16T02:55:28.829Z,0.80
2019-02-16T02:57:57.983Z,0.80
2019-02-16T03:00:26.894Z,0.80
2019-02-16T03:02:55.723Z,0.80
2019-02-16T03:05:24.857Z,1.00
2019-02-16T03:07:53.710Z,0.90
2019-02-16T03:10:22.554Z,1.10
2019-02-16T03:12:51.394Z,1.20
2019-02-16T03:15:20.238Z,1.00
2019-02-16T03:17:49.153Z,0.90
2019-02-16T03:20:17.989Z,1.00
2019-02-16T03:23:11.422Z,1.00
2019-02-16T03:25:40.938Z,0.70
2019-02-16T03:28:24.711Z,0.80
2019-02-16T03:31:18.738Z,0.90
2019-02-16T03:33:52.187Z,1.10
2019-02-16T03:36:57.045Z,1.20
2019-02-16T03:39:29.699Z,0.90
2019-02-16T03:41:58.529Z,0.90
2019-02-16T03:44:27.383Z,0.90
2019-02-16T03:46:56.687Z,0.90
2019-02-16T03:49:25.529Z,0.90
2019-02-16T03:51:54.670Z,0.70
2019-02-16T03:54:23.871Z,0.60
2019-02-16T03:56:53.053Z,0.60
2019-02-16T03:59:22.752Z,0.40
2019-02-16T04:01:51.879Z,0.20
2019-02-16T04:04:20.798Z,0.10
2019-02-16T04:06:49.888Z,0.00
2019-02-16T04:09:18.746Z,0.00
2019-02-16T04:11:47.948Z,0.10
2019-02-16T04:14:17.143Z,0.30
2019-02-16T04:16:46.061Z,0.40
2019-02-16T04:19:15.257Z,0.20
2019-02-16T04:21:44.153Z,0.30
2019-02-16T04:24:12.991Z,0.30
2019-02-16T04:26:42.519Z,0.20
2019-02-16T04:29:11.345Z,0.10
2019-02-16T04:31:40.507Z,0.30
2019-02-16T04:34:09.654Z,0.30
2019-02-16T04:36:38.517Z,0.30
2019-02-16T04:39:07.378Z,0.30
2019-02-16T04:41:36.278Z,0.40
2019-02-16T04:44:05.270Z,0.40
2019-02-16T04:46:34.466Z,0.40
2019-02-16T04:49:03.563Z,0.40
2019-02-16T04:51:32.771Z,0.30
2019-02-16T04:54:01.605Z,0.30
2019-02-16T04:56:30.523Z,0.40
2019-02-16T04:58:59.757Z,0.20
2019-02-16T05:01:28.595Z,0.20
2019-02-16T05:03:57.425Z,0.30
2019-02-16T05:06:26.353Z,0.30
2019-02-16T05:08:55.222Z,0.20
2019-02-16T05:11:24.067Z,0.20
2019-02-16T05:13:52.972Z,0.10
2019-02-16T05:16:21.881Z,0.10
2019-02-16T05:18:50.770Z,0.20
2019-02-16T05:21:19.616Z,0.30
2019-02-16T05:23:48.449Z,0.10
2019-02-16T05:26:17.643Z,0.00
2019-02-16T05:28:46.577Z,0.00
2019-02-16T05:31:15.487Z,0.00
2019-02-16T05:33:44.323Z,0.00
2019-02-16T05:36:13.243Z,-0.10
2019-02-16T05:38:42.078Z,-0.10
2019-02-16T05:41:10.926Z,-0.10
2019-02-16T05:43:40.114Z,0.10
2019-02-16T05:46:08.964Z,0.10
2019-02-16T05:48:38.108Z,0.00
2019-02-16T05:51:06.942Z,-0.20
2019-02-16T05:53:36.163Z,-0.30
2019-02-16T05:56:05.571Z,-0.40
2019-02-16T05:58:34.402Z,0.00
2019-02-16T06:01:03.615Z,-0.30
2019-02-16T06:03:32.451Z,-0.10
2019-02-16T06:06:01.294Z,0.00
2019-02-16T06:08:30.133Z,0.10
2019-02-16T06:10:59.045Z,0.10
2019-02-16T06:13:27.885Z,0.00
2019-02-16T06:15:57.106Z,0.00
2019-02-16T06:18:25.939Z,0.00
2019-02-16T06:20:54.855Z,0.00
2019-02-16T06:23:24.113Z,0.10
2019-02-16T06:25:52.954Z,0.00
2019-02-16T06:28:21.810Z,-0.10
2019-02-16T06:30:50.673Z,-0.10
2019-02-16T06:33:19.518Z,-0.20
2019-02-16T06:35:55.610Z,-0.20
2019-02-16T06:38:24.528Z,-0.20
2019-02-16T06:40:53.452Z,-0.30
2019-02-16T06:43:22.290Z,-0.40
2019-02-16T06:45:51.151Z,-0.50
2019-02-16T06:48:20.061Z,-0.50
2019-02-16T06:50:49.468Z,-0.20
2019-02-16T06:53:18.581Z,-0.30
2019-02-16T06:55:57.652Z,-0.30
2019-02-16T06:58:26.499Z,-0.50
2019-02-16T07:00:55.411Z,-0.50
2019-02-16T07:03:24.303Z,-0.50
2019-02-16T07:05:53.144Z,-0.40
2019-02-16T07:08:22.289Z,-0.30
2019-02-16T07:10:51.137Z,-0.40
2019-02-16T07:13:19.987Z,0.00
2019-02-16T07:16:08.182Z,0.30
2019-02-16T07:18:44.015Z,0.40
2019-02-16T07:21:13.126Z,0.50
2019-02-16T07:23:42.060Z,0.50
2019-02-16T07:26:11.254Z,0.70
2019-02-16T07:28:40.105Z,0.70
2019-02-16T07:31:08.942Z,0.80
2019-02-16T07:33:38.131Z,0.80
2019-02-16T07:36:06.964Z,0.80
2019-02-16T07:38:35.828Z,0.90
2019-02-16T07:41:04.661Z,1.00
2019-02-16T07:43:52.911Z,1.20
2019-02-16T07:46:32.451Z,1.10
2019-02-16T07:49:23.138Z,1.40
2019-02-16T07:51:59.938Z,1.40
2019-02-16T07:54:37.832Z,1.40
2019-02-16T07:57:15.663Z,1.30
2019-02-16T08:00:09.835Z,1.40
2019-02-16T08:02:56.567Z,1.30
2019-02-16T08:05:47.843Z,1.20
2019-02-16T08:08:34.309Z,1.30
2019-02-16T08:11:28.730Z,1.30
2019-02-16T08:14:22.802Z,1.40
2019-02-16T08:17:16.770Z,1.40
2019-02-16T08:20:03.310Z,1.50
2019-02-16T08:22:54.365Z,1.50
2019-02-16T08:25:45.490Z,1.60
2019-02-16T08:28:22.509Z,1.80
2019-02-16T08:31:13.921Z,1.90
2019-02-16T08:34:00.854Z,2.00
2019-02-16T08:36:51.890Z,2.10
2019-02-16T08:39:46.194Z,2.20
2019-02-16T08:42:40.826Z,2.40
2019-02-16T08:45:28.817Z,2.60
2019-02-16T08:48:13.455Z,2.80
2019-02-16T08:50:47.130Z,3.00
2019-02-16T08:53:49.919Z,3.20
2019-02-16T08:56:52.817Z,3.40
2019-02-16T08:59:41.035Z,3.60
2019-02-16T09:02:19.768Z,4.00
2019-02-16T09:05:03.001Z,4.20
2019-02-16T09:07:47.762Z,4.50
2019-02-16T09:10:34.621Z,4.90
2019-02-16T09:13:25.677Z,5.30
2019-02-16T09:16:09.736Z,6.20
2019-02-16T09:18:52.348Z,7.40
2019-02-16T09:21:35.265Z,8.80
2019-02-16T09:24:27.013Z,9.80
2019-02-16T09:27:24.414Z,10.70
2019-02-16T09:30:05.855Z,11.80
2019-02-16T09:32:56.816Z,12.80
2019-02-16T09:35:31.898Z,13.40
2019-02-16T09:38:11.015Z,13.90
2019-02-16T09:40:58.032Z,14.30
2019-02-16T09:43:50.280Z,14.70
2019-02-16T09:46:37.536Z,14.90
2019-02-16T09:49:37.746Z,15.40
2019-02-16T09:52:24.547Z,15.60
2019-02-16T09:55:28.138Z,16.00
2019-02-16T09:58:15.009Z,16.20
2019-02-16T10:00:49.887Z,16.20
2019-02-16T10:03:25.116Z,16.60
2019-02-16T10:06:13.109Z,16.70
2019-02-16T10:09:01.034Z,16.90
2019-02-16T10:11:58.288Z,17.00
2019-02-16T10:14:46.210Z,17.80
2019-02-16T10:17:33.417Z,18.10
2019-02-16T10:20:12.440Z,17.60
2019-02-16T10:23:00.351Z,18.00
2019-02-16T10:25:39.421Z,18.50
2019-02-16T10:28:27.326Z,18.60
2019-02-16T10:31:18.430Z,18.60
2019-02-16T10:34:12.842Z,18.70
2019-02-16T10:37:01.083Z,18.80
2019-02-16T10:39:47.278Z,18.60
2019-02-16T10:42:37.700Z,18.30
2019-02-16T10:45:29.006Z,18.60
2019-02-16T10:48:26.048Z,18.40
2019-02-16T10:51:00.406Z,18.50
2019-02-16T10:53:41.054Z,18.20
2019-02-16T10:56:32.053Z,18.40
2019-02-16T10:59:19.470Z,19.00
2019-02-16T11:02:14.560Z,18.60
2019-02-16T11:05:05.178Z,18.70
2019-02-16T11:07:56.461Z,18.80
2019-02-16T11:10:31.827Z,18.80
2019-02-16T11:13:13.023Z,18.70
2019-02-16T11:15:52.134Z,18.80
2019-02-16T11:18:34.969Z,18.70
2019-02-16T11:21:29.021Z,18.80
2019-02-16T11:24:12.057Z,19.50
2019-02-16T11:26:49.754Z,19.60
2019-02-16T11:29:30.214Z,19.30
2019-02-16T11:32:08.139Z,19.30
2019-02-16T11:34:59.638Z,19.20
2019-02-16T11:37:39.924Z,19.10
2019-02-16T11:40:31.179Z,19.40
2019-02-16T11:43:19.362Z,19.60
2019-02-16T11:46:07.608Z,20.00
2019-02-16T11:48:54.726Z,19.50
2019-02-16T11:51:46.884Z,19.30
2019-02-16T11:54:31.751Z,19.40
2019-02-16T11:57:25.809Z,19.10
2019-02-16T12:00:04.938Z,18.80
2019-02-16T12:02:45.122Z,18.50
2019-02-16T12:05:36.762Z,18.30
2019-02-16T12:08:43.702Z,18.20
2019-02-16T12:11:37.681Z,18.20
2019-02-16T12:14:25.728Z,17.90
2019-02-16T12:17:05.762Z,17.90
2019-02-16T12:19:53.633Z,17.70
2019-02-16T12:22:40.862Z,17.80
2019-02-16T12:25:29.299Z,17.80
2019-02-16T12:28:21.563Z,17.60
2019-02-16T12:31:08.758Z,17.50
2019-02-16T12:33:56.109Z,17.40
2019-02-16T12:36:43.484Z,17.20
2019-02-16T12:39:37.706Z,17.30
2019-02-16T12:42:33.430Z,17.10
2019-02-16T12:45:17.990Z,16.80
2019-02-16T12:48:21.450Z,16.70
2019-02-16T12:51:00.693Z,16.70
2019-02-16T12:53:48.897Z,16.50
2019-02-16T12:56:41.863Z,16.40
2019-02-16T12:59:25.234Z,16.30
2019-02-16T13:02:01.787Z,16.20
2019-02-16T13:04:59.224Z,16.10
2019-02-16T13:07:35.716Z,16.10
2019-02-16T13:10:26.848Z,16.10
2019-02-16T13:13:17.998Z,16.00
2019-02-16T13:16:18.234Z,15.90
2019-02-16T13:19:12.346Z,15.90
2019-02-16T13:21:59.186Z,15.70
2019-02-16T13:24:47.122Z,15.60
2019-02-16T13:27:30.162Z,15.60
2019-02-16T13:30:17.223Z,15.50
2019-02-16T13:33:23.583Z,15.60
2019-02-16T13:35:59.570Z,15.50
2019-02-16T13:38:45.969Z,15.40
2019-02-16T13:41:34.214Z,15.30
2019-02-16T13:44:09.261Z,15.30
2019-02-16T13:47:03.491Z,15.40
2019-02-16T13:49:51.485Z,15.30
2019-02-16T13:52:42.603Z,15.30
2019-02-16T13:55:48.737Z,15.30
2019-02-16T13:58:30.251Z,15.20
2019-02-16T14:01:13.274Z,15.20
2019-02-16T14:04:06.621Z,15.20
2019-02-16T14:06:58.353Z,15.20
2019-02-16T14:10:05.337Z,15.20
2019-02-16T14:12:53.321Z,15.20
2019-02-16T14:15:40.002Z,15.30
2019-02-16T14:18:09.320Z,15.20
2019-02-16T14:20:38.790Z,15.30
2019-02-16T14:23:07.741Z,15.30
2019-02-16T14:25:43.736Z,15.30
2019-02-16T14:28:11.202Z,15.30
2019-02-16T14:30:40.233Z,15.30
2019-02-16T14:33:09.218Z,15.30
2019-02-16T14:35:38.483Z,15.30
2019-02-16T14:38:30.991Z,15.40
2019-02-16T14:41:00.151Z,15.40
2019-02-16T14:43:29.046Z,15.40
2019-02-16T14:45:58.241Z,15.40
2019-02-16T14:48:27.102Z,15.40
2019-02-16T14:50:56.613Z,15.40
2019-02-16T14:53:25.641Z,15.40
2019-02-16T14:55:55.618Z,15.40
2019-02-16T14:58:24.775Z,15.40
2019-02-16T15:00:53.910Z,15.40
2019-02-16T15:03:23.555Z,15.50
2019-02-16T15:05:52.483Z,15.50
2019-02-16T15:08:21.367Z,15.50
2019-02-16T15:10:50.506Z,15.40
2019-02-16T15:13:19.418Z,15.50
2019-02-16T15:15:48.270Z,15.40
2019-02-16T15:18:18.098Z,15.40
2019-02-16T15:20:47.254Z,15.40
2019-02-16T15:23:16.093Z,15.30
2019-02-16T15:25:45.038Z,15.30
2019-02-16T15:28:13.954Z,15.30
2019-02-16T15:30:43.794Z,15.30
2019-02-16T15:33:12.985Z,15.30
2019-02-16T15:35:41.838Z,15.20
2019-02-16T15:38:11.042Z,15.20
2019-02-16T15:40:39.986Z,15.20
2019-02-16T15:43:09.978Z,15.20
2019-02-16T15:45:39.174Z,15.10
2019-02-16T15:48:08.386Z,15.00
2019-02-16T15:50:37.221Z,14.80
2019-02-16T15:53:06.567Z,14.70
2019-02-16T15:55:35.763Z,14.60
2019-02-16T15:58:04.989Z,14.40
2019-02-16T16:00:34.215Z,14.30
2019-02-16T16:03:03.371Z,14.20
2019-02-16T16:05:32.558Z,14.10
2019-02-16T16:08:29.941Z,14.00
2019-02-16T16:11:05.178Z,13.90
2019-02-16T16:13:49.430Z,13.80
2019-02-16T16:16:36.687Z,13.60
2019-02-16T16:19:27.852Z,13.50
2019-02-16T16:22:04.011Z,13.40
2019-02-16T16:24:52.042Z,13.30
2019-02-16T16:27:39.365Z,13.30
2019-02-16T16:30:17.982Z,13.00
2019-02-16T16:33:04.705Z,12.80
2019-02-16T16:35:45.562Z,12.60
2019-02-16T16:38:31.866Z,12.50
2019-02-16T16:41:18.546Z,12.40
2019-02-16T16:44:19.112Z,12.30
2019-02-16T16:47:16.771Z,12.10
2019-02-16T16:50:18.488Z,11.90
2019-02-16T16:52:55.822Z,11.90
2019-02-16T16:55:46.815Z,11.60
2019-02-16T16:58:35.299Z,11.50
2019-02-16T17:01:27.822Z,11.30
2019-02-16T17:04:28.122Z,11.10
2019-02-16T17:07:15.362Z,10.90
2019-02-16T17:10:02.231Z,10.80
2019-02-16T17:12:40.313Z,11.10
2019-02-16T17:15:28.642Z,11.20
2019-02-16T17:18:08.914Z,11.00
2019-02-16T17:20:53.458Z,10.80
2019-02-16T17:23:33.717Z,10.70
2019-02-16T17:26:10.694Z,10.50
2019-02-16T17:29:01.644Z,10.30
2019-02-16T17:31:41.659Z,10.10
2019-02-16T17:34:28.874Z,10.20
2019-02-16T17:37:07.593Z,10.10
2019-02-16T17:39:49.775Z,9.90
2019-02-16T17:42:39.170Z,9.90
2019-02-16T17:45:21.289Z,9.80
2019-02-16T17:48:02.347Z,9.60
2019-02-16T17:50:37.602Z,9.40
2019-02-16T17:53:23.617Z,9.30
2019-02-16T17:56:06.573Z,9.10
2019-02-16T17:58:47.382Z,9.10
2019-02-16T18:01:41.097Z,9.00
2019-02-16T18:04:17.002Z,9.00
2019-02-16T18:06:59.930Z,8.90
2019-02-16T18:09:56.975Z,8.70
2019-02-16T18:12:43.487Z,8.60
2019-02-16T18:15:24.575Z,8.60
2019-02-16T18:18:02.658Z,8.50
2019-02-16T18:20:42.407Z,8.30
2019-02-16T18:23:32.417Z,8.20
2019-02-16T18:26:29.887Z,8.20
2019-02-16T18:29:11.041Z,8.10
2019-02-16T18:31:53.437Z,8.00
2019-02-16T18:34:40.472Z,7.90
2019-02-16T18:37:14.673Z,7.90
2019-02-16T18:40:05.686Z,7.80
2019-02-16T18:42:52.383Z,7.70
2019-02-16T18:45:39.436Z,7.50
2019-02-16T18:48:31.969Z,7.50
2019-02-16T18:51:29.205Z,7.50
2019-02-16T18:54:12.251Z,7.50
2019-02-16T18:57:06.091Z,7.30
2019-02-16T18:59:45.361Z,7.20
2019-02-16T19:02:26.222Z,7.20
2019-02-16T19:05:02.008Z,7.10
2019-02-16T19:07:47.869Z,7.20
2019-02-16T19:10:39.572Z,7.10
2019-02-16T19:13:16.566Z,7.00
2019-02-16T19:16:10.594Z,7.10
2019-02-16T19:19:07.591Z,7.00
2019-02-16T19:21:50.106Z,6.80
2019-02-16T19:24:37.288Z,6.70
2019-02-16T19:27:28.342Z,6.60
2019-02-16T19:30:13.305Z,6.70
2019-02-16T19:33:03.193Z,6.60
2019-02-16T19:35:39.044Z,6.50
2019-02-16T19:38:14.586Z,6.40
2019-02-16T19:40:49.837Z,6.30
2019-02-16T19:43:36.450Z,6.30
2019-02-16T19:46:15.794Z,6.40
2019-02-16T19:48:57.254Z,6.60
2019-02-16T19:51:45.736Z,6.60
2019-02-16T19:54:33.642Z,6.50
2019-02-16T19:57:26.668Z,6.40
2019-02-16T20:00:06.670Z,6.40
2019-02-16T20:03:00.485Z,6.30
2019-02-16T20:05:46.569Z,6.20
2019-02-16T20:08:22.178Z,6.10
2019-02-16T20:11:19.635Z,6.10
2019-02-16T20:14:01.737Z,5.90
2019-02-16T20:16:56.454Z,5.90
2019-02-16T20:19:39.350Z,5.80
2019-02-16T20:22:33.534Z,5.80
2019-02-16T20:25:33.550Z,5.80
2019-02-16T20:28:20.462Z,5.70
2019-02-16T20:30:54.577Z,5.70
2019-02-16T20:33:33.737Z,5.60
2019-02-16T20:36:16.336Z,5.60
2019-02-16T20:39:22.799Z,5.50
2019-02-16T20:42:19.622Z,5.40
2019-02-16T20:45:10.348Z,5.40
2019-02-16T20:48:02.481Z,5.30
2019-02-16T20:51:00.046Z,5.30
2019-02-16T20:53:41.546Z,5.30
2019-02-16T20:56:18.813Z,5.40
2019-02-16T20:58:55.398Z,5.30
2019-02-16T21:01:52.462Z,5.40
2019-02-16T21:04:40.687Z,5.30
2019-02-16T21:07:47.094Z,5.30
2019-02-16T21:10:50.581Z,5.10
2019-02-16T21:13:38.908Z,5.00
2019-02-16T21:16:25.102Z,4.90
2019-02-16T21:19:12.118Z,4.90
2019-02-16T21:21:54.626Z,4.80
2019-02-16T21:24:33.156Z,4.80
2019-02-16T21:27:30.210Z,4.80
2019-02-16T21:30:17.106Z,4.90
2019-02-16T21:33:06.815Z,4.80
2019-02-16T21:35:54.219Z,4.80
2019-02-16T21:38:40.948Z,4.80
2019-02-16T21:41:28.146Z,4.80
2019-02-16T21:44:22.453Z,4.80
2019-02-16T21:47:16.925Z,4.80
2019-02-16T21:50:17.086Z,4.70
2019-02-16T21:53:03.942Z,4.80
2019-02-16T21:55:38.482Z,4.90
2019-02-16T21:58:32.577Z,4.80
2019-02-16T22:01:19.782Z,4.70
2019-02-16T22:04:10.590Z,4.60
2019-02-16T22:06:57.591Z,4.70
2019-02-16T22:09:57.873Z,4.60
2019-02-16T22:12:43.003Z,4.40
2019-02-16T22:15:12.146Z,4.50
2019-02-16T22:17:41.323Z,4.40
2019-02-16T22:20:10.512Z,4.30
2019-02-16T22:22:41.044Z,4.40
2019-02-16T22:25:10.159Z,4.50
2019-02-16T22:27:39.358Z,4.70
2019-02-16T22:30:09.437Z,4.80
2019-02-16T22:32:38.646Z,4.70
2019-02-16T22:35:07.933Z,4.70
2019-02-16T22:37:37.180Z,4.60
2019-02-16T22:40:06.538Z,4.50
2019-02-16T22:42:35.735Z,4.50
2019-02-16T22:45:05.553Z,4.40
2019-02-16T22:47:34.726Z,4.20
2019-02-16T22:50:03.925Z,4.20
2019-02-16T22:52:32.762Z,4.10
2019-02-16T22:55:01.933Z,4.30
2019-02-16T22:57:31.030Z,4.40
2019-02-16T22:59:59.945Z,4.30
2019-02-16T23:02:28.846Z,4.30
2019-02-16T23:04:57.757Z,4.40
2019-02-16T23:07:26.606Z,4.30
2019-02-16T23:09:55.790Z,4.30
2019-02-16T23:12:25.008Z,4.30
2019-02-16T23:14:54.593Z,4.20
2019-02-16T23:17:24.118Z,4.20
2019-02-16T23:19:53.298Z,4.20
2019-02-16T23:22:22.193Z,4.00
2019-02-16T23:24:51.035Z,4.00
2019-02-16T23:27:20.006Z,4.10
2019-02-16T23:29:48.862Z,4.10
2019-02-16T23:32:17.966Z,4.20
2019-02-16T23:34:47.266Z,4.20
2019-02-16T23:37:16.501Z,4.20
2019-02-16T23:39:45.401Z,4.30
2019-02-16T23:42:14.610Z,4.30
2019-02-16T23:44:43.509Z,4.20
2019-02-16T23:47:12.352Z,4.30
2019-02-16T23:49:41.631Z,4.20
2019-02-16T23:52:10.762Z,4.00
2019-02-16T23:54:39.698Z,3.80
2019-02-16T23:57:08.617Z,3.80
2019-02-16T23:59:38.734Z,3.90
